Terminal Aerodrome Forecast
Issued by NWS Pittsburgh, PA

Home | Current Version | Previous Version | Text Only | Print | Product List | Glossary On
Versions: 1 2 3 4 5 6 7 8 9 10 11 12 13 14 15 16 17 18 19 20 21 22 23 24 25 26 27 28 29 30 31 32 33 34
007
FTUS41 KPBZ 292111 AAA
TAFPIT
TAF AMD
KPIT 292111Z 2921/3024 VRB03KT P6SM SCT040
     FM292300 17004KT P6SM BKN050
     FM300600 00000KT 5SM BR SCT250
     FM301100 10002KT 2SM BR OVC003
     FM301300 VRB03KT 4SM HZ BR BKN011
     FM301500 21004KT P6SM SCT030
     FM301900 21007KT P6SM VCTS BKN040CB=

USA.gov is the U.S. government's official web portal to all federal, state and local government web resources and services.